createdAt,value
2018-04-13T00:01:34.108Z,1.77
2018-04-13T00:04:02.787Z,5.13
2018-04-13T00:06:31.117Z,2.60
2018-04-13T00:08:59.440Z,6.03
2018-04-13T00:11:28.551Z,1.80
2018-04-13T00:13:56.989Z,2.57
2018-04-13T00:16:25.305Z,9.00
2018-04-13T00:18:53.646Z,4.13
2018-04-13T00:21:21.960Z,2.40
2018-04-13T00:23:50.345Z,2.03
2018-04-13T00:26:18.930Z,4.00
2018-04-13T00:28:47.666Z,6.90
2018-04-13T00:31:17.037Z,6.40
2018-04-13T00:33:45.656Z,4.33
2018-04-13T00:36:14.333Z,3.53
2018-04-13T00:38:43.266Z,5.97
2018-04-13T00:41:12.813Z,3.87
2018-04-13T00:43:42.338Z,4.53
2018-04-13T00:46:11.133Z,5.43
2018-04-13T00:48:40.128Z,14.67
2018-04-13T00:51:09.213Z,6.80
2018-04-13T00:53:38.283Z,5.27
2018-04-13T00:56:07.626Z,3.57
2018-04-13T00:58:37.199Z,1.90
2018-04-13T01:01:06.068Z,1.97
2018-04-13T01:03:35.685Z,8.40
2018-04-13T01:06:05.232Z,3.20
2018-04-13T01:08:33.970Z,9.10
2018-04-13T01:11:02.645Z,2.23
2018-04-13T01:13:30.932Z,4.73
2018-04-13T01:15:59.437Z,5.00
2018-04-13T01:18:27.999Z,4.53
2018-04-13T01:20:56.315Z,2.60
2018-04-13T01:23:24.637Z,3.10
2018-04-13T01:25:52.954Z,6.17
2018-04-13T01:28:21.517Z,2.37
2018-04-13T01:30:50.683Z,5.73
2018-04-13T01:33:19.006Z,3.25
2018-04-13T01:35:48.459Z,2.87
2018-04-13T01:38:16.804Z,3.03
2018-04-13T01:40:45.365Z,6.47
2018-04-13T01:43:14.693Z,4.00
2018-04-13T01:45:43.542Z,7.80
2018-04-13T01:48:11.975Z,5.23
2018-04-13T01:50:41.122Z,4.50
2018-04-13T01:53:10.015Z,5.97
2018-04-13T01:55:39.631Z,4.40
2018-04-13T01:58:08.923Z,5.43
2018-04-13T02:00:38.238Z,6.53
2018-04-13T02:03:07.533Z,4.20
2018-04-13T02:05:37.611Z,5.93
2018-04-13T02:08:07.992Z,9.37
2018-04-13T02:10:37.881Z,7.80
2018-04-13T02:13:07.359Z,9.30
2018-04-13T02:15:37.593Z,8.50
2018-04-13T02:18:07.775Z,9.50
2018-04-13T02:20:37.909Z,7.53
2018-04-13T02:23:08.259Z,10.20
2018-04-13T02:25:37.604Z,5.23
2018-04-13T02:28:07.831Z,8.30
2018-04-13T02:30:36.916Z,8.83
2018-04-13T02:33:06.580Z,5.13
2018-04-13T02:35:35.593Z,12.77
2018-04-13T02:38:04.315Z,15.13
2018-04-13T02:40:32.893Z,14.93
2018-04-13T02:43:01.547Z,10.33
2018-04-13T02:45:30.156Z,16.37
2018-04-13T02:47:58.464Z,17.30
2018-04-13T02:50:26.761Z,15.60
2018-04-13T02:52:55.074Z,22.30
2018-04-13T02:55:23.390Z,19.07
2018-04-13T02:57:51.771Z,13.47
2018-04-13T03:03:20.643Z,23.43
2018-04-13T03:05:49.079Z,26.80
2018-04-13T03:08:17.414Z,29.40
2018-04-13T03:10:46.519Z,30.90
2018-04-13T03:13:15.928Z,19.00
2018-04-13T03:15:44.609Z,23.23
2018-04-13T03:18:13.306Z,22.70
2018-04-13T03:20:42.791Z,18.60
2018-04-13T03:23:11.533Z,16.00
2018-04-13T03:25:40.368Z,24.37
2018-04-13T03:28:10.126Z,28.30
2018-04-13T03:30:39.283Z,27.73
2018-04-13T03:33:08.278Z,25.00
2018-04-13T03:35:37.513Z,25.03
2018-04-13T03:38:06.629Z,33.00
2018-04-13T03:40:36.344Z,37.40
2018-04-13T03:43:06.465Z,34.42
2018-04-13T03:45:36.863Z,39.10
2018-04-13T03:48:05.895Z,43.10
2018-04-13T03:50:35.352Z,45.77
2018-04-13T03:53:04.245Z,39.50
2018-04-13T03:55:32.708Z,37.60
2018-04-13T03:58:01.242Z,42.37
2018-04-13T04:00:29.579Z,46.93
2018-04-13T04:02:57.937Z,54.23
2018-04-13T04:05:26.248Z,48.03
2018-04-13T04:07:54.545Z,45.63
2018-04-13T04:10:22.833Z,45.97
2018-04-13T04:12:51.136Z,52.87
2018-04-13T04:15:19.765Z,49.95
2018-04-13T04:17:49.152Z,48.50
2018-04-13T04:20:29.250Z,49.50
2018-04-13T04:23:10.453Z,50.47
2018-04-13T04:25:52.402Z,49.95
2018-04-13T04:28:20.947Z,51.00
2018-04-13T04:30:50.344Z,53.27
2018-04-13T04:33:18.889Z,50.70
2018-04-13T04:35:47.354Z,49.07
2018-04-13T04:38:16.081Z,51.10
2018-04-13T04:40:44.998Z,56.70
2018-04-13T04:43:14.547Z,58.20
2018-04-13T04:45:43.744Z,52.10
2018-04-13T04:48:12.531Z,64.80
2018-04-13T04:50:41.640Z,51.00
2018-04-13T04:53:12.343Z,59.13
2018-04-13T04:55:41.605Z,61.07
2018-04-13T04:58:10.206Z,68.57
2018-04-13T05:00:38.763Z,73.00
2018-04-13T05:03:07.564Z,67.80
2018-04-13T05:05:36.458Z,68.93
2018-04-13T05:08:05.181Z,63.33
2018-04-13T05:10:33.673Z,67.77
2018-04-13T05:13:02.084Z,81.00
2018-04-13T05:15:30.761Z,73.97
2018-04-13T05:17:59.237Z,77.00
2018-04-13T05:20:28.406Z,74.20
2018-04-13T05:22:56.873Z,75.50
2018-04-13T05:25:25.184Z,77.37
2018-04-13T05:27:53.590Z,76.90
2018-04-13T05:30:21.958Z,76.30
2018-04-13T05:32:50.361Z,84.40
2018-04-13T05:35:19.378Z,86.10
2018-04-13T05:37:48.496Z,85.65
2018-04-13T05:40:16.837Z,77.67
2018-04-13T05:42:46.178Z,79.37
2018-04-13T05:45:15.099Z,79.33
2018-04-13T05:47:43.885Z,88.17
2018-04-13T05:50:12.802Z,96.13
2018-04-13T05:52:41.604Z,99.63
2018-04-13T05:55:10.674Z,107.03
2018-04-13T05:57:40.097Z,97.12
2018-04-13T06:00:09.451Z,98.80
2018-04-13T06:02:40.188Z,124.13
2018-04-13T06:05:09.444Z,106.00
2018-04-13T06:07:38.686Z,122.40
2018-04-13T06:10:07.622Z,137.97
2018-04-13T06:12:37.196Z,129.70
2018-04-13T06:15:07.160Z,120.00
2018-04-13T06:17:37.121Z,126.60
2018-04-13T06:20:06.162Z,122.70
2018-04-13T06:22:36.210Z,123.97
2018-04-13T06:25:07.205Z,129.17
2018-04-13T06:27:36.630Z,125.67
2018-04-13T06:32:40.539Z,112.73
2018-04-13T06:35:09.552Z,130.20
2018-04-13T06:37:38.468Z,119.83
2018-04-13T06:40:08.592Z,109.47
2018-04-13T06:42:37.866Z,123.27
2018-04-13T06:45:07.999Z,110.47
2018-04-13T06:47:36.977Z,111.73
2018-04-13T06:50:05.934Z,123.40
2018-04-13T06:52:35.673Z,105.90
2018-04-13T06:55:04.360Z,122.73
2018-04-13T06:57:33.243Z,119.10
2018-04-13T07:00:02.145Z,115.40
2018-04-13T07:02:30.931Z,111.77
2018-04-13T07:05:00.088Z,110.83
2018-04-13T07:07:28.527Z,104.30
2018-04-13T07:09:56.855Z,102.60
2018-04-13T07:12:25.258Z,105.23
2018-04-13T07:14:53.597Z,95.57
2018-04-13T07:17:21.946Z,112.10
2018-04-13T07:19:51.178Z,110.90
2018-04-13T07:22:19.531Z,109.03
2018-04-13T07:24:47.927Z,110.83
2018-04-13T07:27:16.259Z,129.87
2018-04-13T07:29:44.809Z,117.43
2018-04-13T07:32:13.298Z,117.37
2018-04-13T07:34:42.699Z,100.93
2018-04-13T07:37:11.559Z,105.10
2018-04-13T07:39:40.388Z,106.57
2018-04-13T07:42:09.142Z,96.80
2018-04-13T07:44:37.962Z,90.07
2018-04-13T07:47:07.057Z,91.32
2018-04-13T07:49:37.391Z,96.07
2018-04-13T07:52:06.926Z,86.93
2018-04-13T07:54:36.616Z,89.70
2018-04-13T07:57:05.543Z,78.97
2018-04-13T07:59:34.357Z,76.17
2018-04-13T08:02:03.351Z,75.03
2018-04-13T08:04:32.029Z,76.00
2018-04-13T08:07:01.748Z,80.43
2018-04-13T08:09:30.936Z,84.80
2018-04-13T08:12:00.083Z,82.30
2018-04-13T08:14:29.284Z,80.33
2018-04-13T08:16:57.648Z,79.40
2018-04-13T08:19:26.904Z,79.90
2018-04-13T08:21:55.257Z,82.63
2018-04-13T08:24:24.365Z,84.10
2018-04-13T08:26:53.726Z,85.77
2018-04-13T08:29:22.081Z,94.30
2018-04-13T08:31:51.355Z,89.33
2018-04-13T08:34:19.730Z,91.20
2018-04-13T08:36:49.245Z,89.73
2018-04-13T08:39:18.412Z,85.20
2018-04-13T08:41:47.850Z,97.17
2018-04-13T08:44:16.454Z,87.30
2018-04-13T08:46:45.702Z,92.70
2018-04-13T08:49:14.240Z,94.70
2018-04-13T08:51:42.795Z,97.77
2018-04-13T08:54:11.313Z,98.03
2018-04-13T08:56:40.688Z,101.90
2018-04-13T08:59:09.790Z,94.37
2018-04-13T09:01:39.153Z,110.80
2018-04-13T09:04:08.036Z,100.20
2018-04-13T09:06:37.605Z,104.90
2018-04-13T09:09:06.990Z,104.63
2018-04-13T09:11:36.391Z,111.50
2018-04-13T09:14:07.018Z,109.07
2018-04-13T09:16:36.622Z,105.90
2018-04-13T09:19:05.715Z,115.50
2018-04-13T09:21:34.428Z,124.83
2018-04-13T09:24:03.561Z,122.63
2018-04-13T09:26:33.334Z,115.80
2018-04-13T09:29:02.394Z,132.20
2018-04-13T09:31:30.976Z,112.10
2018-04-13T09:33:59.554Z,140.43
2018-04-13T09:36:28.716Z,130.87
2018-04-13T09:38:57.091Z,111.03
2018-04-13T09:41:25.426Z,113.57
2018-04-13T09:43:53.810Z,111.37
2018-04-13T09:46:22.935Z,95.57
2018-04-13T09:48:52.008Z,97.07
2018-04-13T09:51:20.338Z,82.90
2018-04-13T09:53:49.440Z,76.60
2018-04-13T09:56:18.858Z,81.07
2018-04-13T09:58:47.255Z,87.40
2018-04-13T10:01:17.035Z,70.93
2018-04-13T10:03:50.458Z,79.93
2018-04-13T10:06:18.868Z,82.40
2018-04-13T10:08:47.561Z,86.50
2018-04-13T10:11:16.240Z,66.83
2018-04-13T10:13:44.797Z,65.30
2018-04-13T10:16:13.434Z,68.00
2018-04-13T10:18:42.135Z,65.80
2018-04-13T10:21:11.239Z,63.70
2018-04-13T10:23:40.120Z,65.83
2018-04-13T10:26:10.212Z,58.67
2018-04-13T10:28:40.056Z,56.57
2018-04-13T10:31:08.906Z,64.40
2018-04-13T10:33:37.840Z,55.83
2018-04-13T10:36:07.206Z,55.10
2018-04-13T10:38:36.454Z,46.47
2018-04-13T10:41:05.828Z,44.20
2018-04-13T10:43:34.928Z,34.10
2018-04-13T10:46:03.710Z,36.27
2018-04-13T10:48:32.579Z,39.00
2018-04-13T10:51:01.059Z,37.37
2018-04-13T10:53:29.446Z,30.47
2018-04-13T10:55:57.922Z,33.17
2018-04-13T10:58:27.195Z,39.37
2018-04-13T11:00:56.337Z,40.07
2018-04-13T11:03:24.732Z,35.17
2018-04-13T11:05:53.299Z,35.10
2018-04-13T11:08:22.472Z,34.27
2018-04-13T11:10:50.916Z,36.90
2018-04-13T11:13:19.267Z,40.73
2018-04-13T11:15:47.613Z,42.23
2018-04-13T11:18:16.015Z,52.80
2018-04-13T11:20:44.551Z,41.33
2018-04-13T11:23:13.256Z,34.87
2018-04-13T11:25:42.305Z,44.27
2018-04-13T11:28:11.950Z,35.07
2018-04-13T11:30:40.563Z,39.37
2018-04-13T11:33:10.644Z,50.10
2018-04-13T11:35:39.697Z,33.53
2018-04-13T11:38:08.969Z,30.80
2018-04-13T11:40:38.820Z,29.50
2018-04-13T11:43:09.529Z,29.43
2018-04-13T11:45:39.222Z,31.20
2018-04-13T11:48:08.611Z,34.10
2018-04-13T11:50:37.749Z,36.93
2018-04-13T11:53:07.764Z,42.37
2018-04-13T11:55:37.946Z,37.73
2018-04-13T11:58:07.469Z,36.17
2018-04-13T12:00:37.329Z,28.23
2018-04-13T12:03:06.272Z,31.50
2018-04-13T12:05:35.729Z,32.37
2018-04-13T12:08:04.535Z,25.47
2018-04-13T12:10:33.811Z,36.77
2018-04-13T12:13:02.312Z,22.57
2018-04-13T12:15:30.795Z,29.03
2018-04-13T12:17:59.535Z,29.97
2018-04-13T12:20:28.010Z,23.10
2018-04-13T12:22:57.183Z,26.17
2018-04-13T12:25:25.572Z,20.30
2018-04-13T12:27:53.935Z,13.00
2018-04-13T12:30:22.356Z,15.90
2018-04-13T12:32:50.873Z,19.80
2018-04-13T12:35:20.264Z,18.07
2018-04-13T12:37:49.604Z,12.40
2018-04-13T12:40:18.025Z,12.47
2018-04-13T12:42:46.437Z,10.60
2018-04-13T12:45:15.069Z,6.60
2018-04-13T12:47:43.952Z,15.13
2018-04-13T12:50:13.486Z,11.17
2018-04-13T12:52:42.191Z,14.17
2018-04-13T12:55:11.245Z,12.30
2018-04-13T12:57:40.705Z,14.40
2018-04-13T13:00:11.154Z,17.83
2018-04-13T13:02:40.810Z,15.70
2018-04-13T13:05:09.781Z,18.97
2018-04-13T13:07:38.736Z,22.50
2018-04-13T13:10:07.980Z,23.48
2018-04-13T13:12:37.364Z,20.80
2018-04-13T13:15:06.920Z,22.50
2018-04-13T13:17:38.812Z,30.43
2018-04-13T13:20:07.937Z,30.90
2018-04-13T13:22:39.325Z,46.13
2018-04-13T13:25:08.878Z,41.07
2018-04-13T13:27:37.926Z,43.17
2018-04-13T13:30:07.192Z,38.87
2018-04-13T13:32:36.405Z,40.17
2018-04-13T13:35:07.710Z,47.73
2018-04-13T13:37:37.106Z,56.03
2018-04-13T13:40:06.702Z,48.10
2018-04-13T13:42:35.566Z,44.77
2018-04-13T13:45:04.079Z,47.43
2018-04-13T13:47:32.919Z,44.53
2018-04-13T13:50:01.695Z,45.40
2018-04-13T13:52:31.079Z,47.70
2018-04-13T13:55:00.221Z,48.23
2018-04-13T13:57:28.641Z,54.57
2018-04-13T13:59:57.066Z,53.07
2018-04-13T14:02:26.162Z,53.53
2018-04-13T14:04:54.573Z,59.67
2018-04-13T14:07:23.673Z,50.63
2018-04-13T14:09:52.782Z,50.37
2018-04-13T14:12:21.901Z,47.33
2018-04-13T14:14:51.207Z,46.37
2018-04-13T14:17:19.738Z,56.03
2018-04-13T14:19:48.158Z,49.90
2018-04-13T14:22:16.601Z,51.53
2018-04-13T14:24:45.858Z,50.03
2018-04-13T14:27:14.348Z,45.03
2018-04-13T14:29:42.863Z,47.80
2018-04-13T14:32:11.498Z,42.37
2018-04-13T14:34:40.154Z,33.23
2018-04-13T14:37:08.735Z,43.10
2018-04-13T14:39:37.386Z,33.20
2018-04-13T14:42:06.251Z,34.30
2018-04-13T14:44:34.933Z,30.80
2018-04-13T14:47:03.361Z,41.17
2018-04-13T14:49:31.996Z,35.00
2018-04-13T14:52:00.441Z,32.17
2018-04-13T14:54:28.829Z,35.20
2018-04-13T14:56:57.269Z,27.53
2018-04-13T14:59:26.394Z,30.35
2018-04-13T15:01:55.495Z,31.80
2018-04-13T15:04:23.894Z,29.63
2018-04-13T15:06:52.248Z,31.80
2018-04-13T15:09:20.741Z,33.63
2018-04-13T15:11:49.859Z,30.93
2018-04-13T15:14:18.192Z,43.47
2018-04-13T15:16:46.677Z,39.80
2018-04-13T15:19:15.231Z,34.50
2018-04-13T15:21:44.481Z,35.87
2018-04-13T15:24:13.113Z,36.43
2018-04-13T15:26:42.408Z,44.87
2018-04-13T15:29:10.959Z,45.83
2018-04-13T15:31:40.229Z,35.53
2018-04-13T15:34:08.744Z,44.27
2018-04-13T15:36:37.222Z,38.55
2018-04-13T15:39:06.722Z,42.57
2018-04-13T15:41:36.225Z,41.00
2018-04-13T15:44:04.868Z,33.23
2018-04-13T15:46:33.232Z,35.53
2018-04-13T15:49:01.544Z,34.87
2018-04-13T15:51:29.858Z,26.40
2018-04-13T15:53:58.194Z,29.13
2018-04-13T15:56:26.565Z,26.53
2018-04-13T15:58:55.811Z,28.40
2018-04-13T16:01:24.190Z,27.40
2018-04-13T16:03:52.534Z,25.77
2018-04-13T16:06:20.909Z,33.97
2018-04-13T16:08:49.532Z,36.87
2018-04-13T16:11:17.980Z,32.20
2018-04-13T16:13:46.794Z,28.53
2018-04-13T16:16:15.429Z,26.30
2018-04-13T16:18:43.988Z,28.50
2018-04-13T16:21:12.829Z,25.30
2018-04-13T16:23:42.323Z,22.10
2018-04-13T16:26:11.064Z,23.17
2018-04-13T16:28:39.627Z,21.97
2018-04-13T16:31:08.668Z,21.87
2018-04-13T16:33:37.722Z,23.20
2018-04-13T16:36:07.481Z,17.37
2018-04-13T16:38:36.462Z,14.83
2018-04-13T16:41:06.510Z,8.68
2018-04-13T16:43:35.860Z,8.93
2018-04-13T16:46:05.269Z,6.50
2018-04-13T16:48:34.025Z,5.90
2018-04-13T16:51:02.866Z,5.07
2018-04-13T16:53:32.143Z,2.17
2018-04-13T16:56:00.542Z,3.43
2018-04-13T16:58:29.615Z,2.23
2018-04-13T17:00:58.717Z,1.43
2018-04-13T17:03:27.821Z,1.80
2018-04-13T17:05:56.140Z,1.20
2018-04-13T17:08:24.492Z,2.70
2018-04-13T17:10:52.812Z,1.60
2018-04-13T17:13:21.124Z,1.30
2018-04-13T17:15:49.829Z,2.10
2018-04-13T17:18:18.221Z,2.93
2018-04-13T17:20:46.682Z,3.03
2018-04-13T17:23:15.170Z,6.10
2018-04-13T17:25:43.697Z,9.93
2018-04-13T17:28:12.203Z,11.37
2018-04-13T17:30:41.023Z,9.57
2018-04-13T17:33:09.570Z,8.50
2018-04-13T17:35:38.343Z,13.00
2018-04-13T17:38:07.383Z,13.10
2018-04-13T17:40:37.426Z,12.37
2018-04-13T17:43:07.057Z,14.83
2018-04-13T17:45:36.647Z,13.97
2018-04-13T17:48:05.988Z,19.53
2018-04-13T17:50:34.521Z,17.10
2018-04-13T17:53:03.028Z,22.43
2018-04-13T17:55:32.425Z,18.93
2018-04-13T17:58:00.992Z,24.97
2018-04-13T18:00:30.165Z,19.83
2018-04-13T18:02:59.219Z,21.33
2018-04-13T18:05:27.604Z,22.40
2018-04-13T18:07:56.067Z,19.90
2018-04-13T18:10:24.713Z,22.00
2018-04-13T18:12:53.064Z,25.03
2018-04-13T18:15:21.507Z,19.93
2018-04-13T18:17:50.601Z,18.70
2018-04-13T18:20:19.188Z,23.37
2018-04-13T18:22:47.548Z,22.73
2018-04-13T18:25:16.250Z,18.40
2018-04-13T18:27:44.840Z,17.80
2018-04-13T18:30:13.500Z,21.57
2018-04-13T18:32:42.156Z,21.63
2018-04-13T18:35:10.867Z,18.93
2018-04-13T18:37:39.773Z,20.23
2018-04-13T18:40:08.577Z,22.27
2018-04-13T18:42:38.277Z,18.87
2018-04-13T18:45:07.163Z,22.57
2018-04-13T18:47:36.025Z,19.63
2018-04-13T18:50:04.444Z,31.43
2018-04-13T18:52:34.803Z,26.67
2018-04-13T18:55:03.245Z,21.40
2018-04-13T18:57:31.769Z,22.93
2018-04-13T19:00:01.189Z,22.67
2018-04-13T19:02:29.591Z,28.40
2018-04-13T19:04:57.904Z,26.93
2018-04-13T19:07:26.224Z,24.00
2018-04-13T19:09:54.552Z,22.90
2018-04-13T19:12:23.617Z,23.40
2018-04-13T19:14:51.926Z,26.93
2018-04-13T19:17:20.371Z,27.30
2018-04-13T19:19:48.689Z,26.40
2018-04-13T19:22:17.012Z,29.40
2018-04-13T19:24:46.187Z,27.33
2018-04-13T19:27:14.696Z,28.15
2018-04-13T19:29:43.383Z,30.10
2018-04-13T19:32:12.597Z,29.30
2018-04-13T19:34:41.890Z,30.27
2018-04-13T19:37:10.410Z,28.03
2018-04-13T19:39:39.876Z,24.13
2018-04-13T19:42:08.722Z,29.70
2018-04-13T19:44:37.494Z,34.60
2018-04-13T19:47:06.163Z,29.40
2018-04-13T19:49:35.473Z,28.33
2018-04-13T19:52:04.674Z,25.57
2018-04-13T19:54:33.764Z,29.83
2018-04-13T19:57:02.337Z,25.37
2018-04-13T19:59:31.654Z,26.03
2018-04-13T20:01:59.974Z,25.65
2018-04-13T20:04:28.353Z,21.23
2018-04-13T20:06:56.686Z,21.80
2018-04-13T20:09:25.039Z,26.20
2018-04-13T20:11:53.369Z,20.00
2018-04-13T20:14:25.302Z,17.37
2018-04-13T20:16:53.697Z,24.90
2018-04-13T20:19:22.035Z,20.17
2018-04-13T20:21:50.343Z,17.60
2018-04-13T20:24:19.671Z,25.10
2018-04-13T20:26:48.307Z,25.57
2018-04-13T20:29:17.160Z,29.20
2018-04-13T20:31:45.828Z,23.50
2018-04-13T20:34:14.398Z,23.20
2018-04-13T20:36:42.942Z,24.90
2018-04-13T20:39:11.675Z,26.93
2018-04-13T20:41:41.264Z,36.33
2018-04-13T20:44:09.912Z,29.10
2018-04-13T20:46:39.444Z,34.80
2018-04-13T20:49:08.418Z,32.30
2018-04-13T20:51:37.163Z,33.20
2018-04-13T20:54:05.824Z,32.43
2018-04-13T20:56:34.205Z,36.90
2018-04-13T20:59:02.754Z,37.20
2018-04-13T21:01:31.872Z,37.20
2018-04-13T21:04:00.180Z,36.43
2018-04-13T21:06:28.502Z,47.60
2018-04-13T21:08:56.854Z,46.93
2018-04-13T21:11:25.200Z,49.57
2018-04-13T21:13:54.313Z,49.80
2018-04-13T21:16:22.726Z,60.50
2018-04-13T21:18:51.094Z,50.10
2018-04-13T21:21:19.430Z,52.60
2018-04-13T21:23:48.045Z,59.05
2018-04-13T21:26:16.449Z,52.33
2018-04-13T21:28:45.027Z,64.50
2018-04-13T21:31:13.511Z,60.37
2018-04-13T21:33:43.031Z,67.13
2018-04-13T21:36:11.675Z,79.77
2018-04-13T21:38:40.481Z,63.23
2018-04-13T21:41:09.231Z,66.47
2018-04-13T21:43:38.566Z,64.63
2018-04-13T21:46:07.440Z,75.27
2018-04-13T21:48:36.977Z,77.50
2018-04-13T21:51:08.714Z,78.97
2018-04-13T21:53:37.588Z,80.23
2018-04-13T21:56:07.411Z,69.67
2018-04-13T21:58:37.027Z,85.33
2018-04-13T22:01:05.689Z,68.93
2018-04-13T22:03:35.431Z,80.13
2018-04-13T22:06:04.765Z,76.73
2018-04-13T22:08:33.172Z,77.87
2018-04-13T22:11:01.571Z,84.53
2018-04-13T22:13:31.502Z,83.43
2018-04-13T22:16:00.589Z,86.53
2018-04-13T22:18:28.915Z,81.50
2018-04-13T22:20:57.246Z,84.67
2018-04-13T22:23:25.618Z,88.43
2018-04-13T22:25:53.920Z,88.30
2018-04-13T22:28:23.188Z,90.93
2018-04-13T22:30:52.320Z,87.80
2018-04-13T22:33:20.735Z,82.80
2018-04-13T22:35:49.170Z,82.90
2018-04-13T22:38:17.682Z,95.50
2018-04-13T22:40:47.069Z,88.93
2018-04-13T22:43:15.729Z,89.10
2018-04-13T22:45:44.419Z,92.23
2018-04-13T22:48:13.005Z,84.50
2018-04-13T22:50:41.620Z,76.63
2018-04-13T22:53:10.325Z,83.70
2018-04-13T22:55:39.877Z,86.57
2018-04-13T22:58:09.488Z,88.80
2018-04-13T23:00:38.612Z,90.33
2018-04-13T23:03:07.734Z,89.75
2018-04-13T23:05:36.663Z,91.53
2018-04-13T23:08:05.672Z,92.53
2018-04-13T23:10:34.269Z,85.27
2018-04-13T23:13:02.812Z,93.93
2018-04-13T23:15:31.158Z,84.70
2018-04-13T23:17:59.584Z,91.37
2018-04-13T23:20:27.913Z,98.47
2018-04-13T23:22:56.265Z,85.30
2018-04-13T23:25:25.649Z,92.83
2018-04-13T23:27:54.817Z,87.70
2018-04-13T23:30:24.253Z,92.90
2018-04-13T23:32:52.545Z,93.80
2018-04-13T23:35:21.730Z,89.60
2018-04-13T23:37:50.063Z,95.43
2018-04-13T23:40:19.707Z,89.27
2018-04-13T23:42:48.416Z,81.70
2018-04-13T23:45:17.968Z,89.93
2018-04-13T23:47:46.364Z,78.47
2018-04-13T23:50:14.997Z,77.77
2018-04-13T23:52:44.434Z,94.07
2018-04-13T23:55:12.944Z,84.60
2018-04-13T23:57:41.655Z,81.00
